createdAt,value
2022-10-05T00:00:27.464Z,95.06
2022-10-05T00:02:55.860Z,95.02
2022-10-05T00:05:32.646Z,95.16
2022-10-05T00:08:13.027Z,94.91
2022-10-05T00:10:43.531Z,94.98
2022-10-05T00:13:21.451Z,94.94
2022-10-05T00:15:49.993Z,94.55
2022-10-05T00:18:20.405Z,94.55
2022-10-05T00:20:48.883Z,94.64
2022-10-05T00:23:26.091Z,94.79
2022-10-05T00:25:52.916Z,94.78
2022-10-05T00:28:30.257Z,94.74
2022-10-05T00:30:59.300Z,94.77
2022-10-05T00:33:27.373Z,94.89
2022-10-05T00:35:55.522Z,95.00
2022-10-05T00:38:22.558Z,95.05
2022-10-05T00:41:03.518Z,94.93
2022-10-05T00:43:49.035Z,95.13
2022-10-05T00:46:47.099Z,94.79
2022-10-05T00:49:32.482Z,94.84
2022-10-05T00:52:41.222Z,94.91
2022-10-05T00:55:13.649Z,94.87
2022-10-05T00:57:58.373Z,94.80
2022-10-05T01:00:26.983Z,95.13
2022-10-05T01:03:10.330Z,95.19
2022-10-05T01:06:15.649Z,95.18
2022-10-05T01:08:54.514Z,95.58
2022-10-05T01:11:50.484Z,95.56
2022-10-05T01:14:30.186Z,95.25
2022-10-05T01:17:09.553Z,95.23
2022-10-05T01:20:05.572Z,95.29
2022-10-05T01:22:57.266Z,95.25
2022-10-05T01:25:42.689Z,95.43
2022-10-05T01:28:19.299Z,95.75
2022-10-05T01:31:12.101Z,95.78
2022-10-05T02:11:45.970Z,95.92
2022-10-05T02:14:18.556Z,95.90
2022-10-05T02:16:52.014Z,95.76
2022-10-05T02:19:25.690Z,95.75
2022-10-05T02:21:59.779Z,95.71
2022-10-05T02:24:32.458Z,95.73
2022-10-05T02:26:59.864Z,95.67
2022-10-05T02:29:32.358Z,95.51
2022-10-05T02:32:04.449Z,95.36
2022-10-05T02:34:39.607Z,95.67
2022-10-05T02:37:36.044Z,95.79
2022-10-05T02:40:38.150Z,95.79
2022-10-05T02:43:24.030Z,95.94
2022-10-05T02:46:01.414Z,96.07
2022-10-05T02:48:43.372Z,95.99
2022-10-05T02:51:39.101Z,96.02
2022-10-05T02:54:21.990Z,95.91
2022-10-05T02:57:00.502Z,95.89
2022-10-05T02:59:38.187Z,95.86
2022-10-05T03:02:18.847Z,95.94
2022-10-05T03:04:54.483Z,95.91
2022-10-05T03:07:27.867Z,95.93
2022-10-05T03:10:09.920Z,95.83
2022-10-05T03:12:52.577Z,96.18
2022-10-05T03:15:49.258Z,96.00
2022-10-05T03:18:42.963Z,95.86
2022-10-05T03:21:26.459Z,96.03
2022-10-05T03:23:53.231Z,95.87
2022-10-05T03:26:38.285Z,96.00
2022-10-05T03:29:14.391Z,96.11
2022-10-05T03:31:48.840Z,96.15
2022-10-05T03:34:29.176Z,96.18
2022-10-05T03:37:15.663Z,96.25
2022-10-05T03:40:01.747Z,96.48
2022-10-05T03:43:15.477Z,96.98
2022-10-05T03:45:53.022Z,97.17
2022-10-05T03:48:32.489Z,97.83
2022-10-05T03:51:17.404Z,97.73
2022-10-05T03:53:53.121Z,98.08
2022-10-05T03:56:32.105Z,98.34
2022-10-05T03:59:20.782Z,98.49
2022-10-05T04:02:06.026Z,98.32
2022-10-05T04:05:13.635Z,97.83
2022-10-05T04:08:11.610Z,97.68
2022-10-05T04:10:52.122Z,97.44
2022-10-05T04:13:26.938Z,97.59
2022-10-05T04:16:32.271Z,97.43
2022-10-05T04:19:04.259Z,97.25
2022-10-05T04:21:40.194Z,96.99
2022-10-05T04:24:16.164Z,97.12
2022-10-05T04:26:53.231Z,97.30
2022-10-05T04:30:00.500Z,97.30
2022-10-05T04:32:41.985Z,97.30
2022-10-05T04:35:17.593Z,97.33
2022-10-05T04:38:17.079Z,97.25
2022-10-05T04:40:52.090Z,97.33
2022-10-05T04:43:32.426Z,97.42
2022-10-05T04:46:21.654Z,97.45
2022-10-05T04:49:22.566Z,97.58
2022-10-05T04:51:55.326Z,97.66
2022-10-05T04:54:35.518Z,97.75
2022-10-05T04:57:10.628Z,97.70
2022-10-05T05:00:09.120Z,98.00
2022-10-05T05:02:59.139Z,97.94
2022-10-05T05:06:12.134Z,98.04
2022-10-05T05:08:48.266Z,97.99
2022-10-05T05:11:27.160Z,97.98
2022-10-05T05:14:21.582Z,98.01
2022-10-05T05:17:04.579Z,98.13
2022-10-05T05:19:40.251Z,98.07
2022-10-05T05:22:20.521Z,97.94
2022-10-05T05:25:11.721Z,98.12
2022-10-05T05:27:52.275Z,98.08
2022-10-05T05:30:43.984Z,98.09
2022-10-05T05:33:23.424Z,98.12
2022-10-05T05:36:13.207Z,98.27
2022-10-05T05:38:42.687Z,98.03
2022-10-05T05:41:19.739Z,98.32
2022-10-05T05:44:25.461Z,98.51
2022-10-05T05:47:23.323Z,98.42
2022-10-05T05:50:18.418Z,98.88
2022-10-05T05:52:58.763Z,98.65
2022-10-05T05:55:39.526Z,98.73
2022-10-05T05:58:24.990Z,98.88
2022-10-05T06:01:01.462Z,98.99
2022-10-05T06:03:37.629Z,98.98
2022-10-05T06:06:09.905Z,98.95
2022-10-05T06:08:51.533Z,98.69
2022-10-05T06:11:23.855Z,98.62
2022-10-05T06:13:51.989Z,98.75
2022-10-05T06:16:25.144Z,98.72
2022-10-05T06:18:59.399Z,99.21
2022-10-05T06:21:37.426Z,99.90
2022-10-05T06:24:10.363Z,99.42
2022-10-05T06:26:46.517Z,99.10
2022-10-05T06:29:20.909Z,99.01
2022-10-05T06:31:58.562Z,99.00
2022-10-05T06:34:34.987Z,99.20
2022-10-05T06:37:09.778Z,99.34
2022-10-05T06:40:09.446Z,99.19
2022-10-05T06:43:00.428Z,98.71
2022-10-05T06:45:36.609Z,98.31
2022-10-05T06:48:25.533Z,97.99
2022-10-05T06:51:00.539Z,98.25
2022-10-05T06:53:56.833Z,98.51
2022-10-05T06:56:48.997Z,98.09
2022-10-05T06:59:27.700Z,97.11
2022-10-05T07:02:13.029Z,96.28
2022-10-05T07:05:04.199Z,94.86
2022-10-05T07:07:42.962Z,94.41
2022-10-05T07:10:34.507Z,94.09
2022-10-05T07:13:36.861Z,94.38
2022-10-05T07:16:21.980Z,94.32
2022-10-05T07:19:10.419Z,93.58
2022-10-05T07:21:46.441Z,92.17
2022-10-05T07:24:42.542Z,92.22
2022-10-05T07:27:23.600Z,90.95
2022-10-05T07:30:05.824Z,89.33
2022-10-05T07:32:44.315Z,88.18
2022-10-05T07:36:04.767Z,86.87
2022-10-05T07:38:46.885Z,86.47
2022-10-05T07:41:20.958Z,86.81
2022-10-05T07:44:22.689Z,84.29
2022-10-05T07:47:03.468Z,82.51
2022-10-05T07:50:04.112Z,80.53
2022-10-05T07:52:36.884Z,79.80
2022-10-05T07:55:25.454Z,80.62
2022-10-05T07:57:52.250Z,77.39
2022-10-05T08:00:24.490Z,77.52
2022-10-05T08:03:10.372Z,77.38
2022-10-05T08:05:41.957Z,75.15
2022-10-05T08:08:13.240Z,75.91
2022-10-05T08:10:55.227Z,74.42
2022-10-05T08:13:37.875Z,71.44
2022-10-05T08:16:14.660Z,70.25
2022-10-05T08:19:19.777Z,71.26
2022-10-05T08:22:03.252Z,70.02
2022-10-05T08:24:39.088Z,70.10
2022-10-05T08:27:15.534Z,71.32
2022-10-05T08:29:48.413Z,69.38
2022-10-05T08:32:47.729Z,69.12
2022-10-05T08:35:37.789Z,70.82
2022-10-05T08:38:13.697Z,72.65
2022-10-05T08:41:22.247Z,72.92
2022-10-05T08:44:03.053Z,74.96
2022-10-05T08:46:46.380Z,74.62
2022-10-05T08:49:22.368Z,74.09
2022-10-05T08:52:17.039Z,70.59
2022-10-05T08:55:08.488Z,67.32
2022-10-05T08:57:58.813Z,66.05
2022-10-05T09:00:39.355Z,64.29
2022-10-05T09:03:37.199Z,63.24
2022-10-05T09:06:06.984Z,59.68
2022-10-05T09:08:44.929Z,60.39
2022-10-05T09:11:20.416Z,60.66
2022-10-05T09:14:18.149Z,60.02
2022-10-05T09:17:04.863Z,58.41
2022-10-05T09:19:52.645Z,55.27
2022-10-05T09:22:47.376Z,54.94
2022-10-05T09:25:26.175Z,53.93
2022-10-05T09:27:58.984Z,50.96
2022-10-05T09:30:47.778Z,52.63
2022-10-05T09:33:27.080Z,52.63
2022-10-05T09:35:58.066Z,54.00
2022-10-05T09:38:46.607Z,53.72
2022-10-05T09:41:32.211Z,55.50
2022-10-05T09:44:11.353Z,56.21
2022-10-05T09:47:04.423Z,56.61
2022-10-05T09:50:09.099Z,57.71
2022-10-05T09:53:30.089Z,57.91
2022-10-05T09:56:21.399Z,55.81
2022-10-05T09:59:16.119Z,51.52
2022-10-05T10:02:07.796Z,51.97
2022-10-05T10:05:01.769Z,51.38
2022-10-05T10:07:58.780Z,50.17
2022-10-05T10:11:04.234Z,51.00
2022-10-05T10:13:46.685Z,48.75
2022-10-05T10:16:35.619Z,50.23
2022-10-05T10:19:21.193Z,49.97
2022-10-05T10:22:01.917Z,50.18
2022-10-05T10:24:43.929Z,49.87
2022-10-05T10:27:52.380Z,51.70
2022-10-05T10:30:35.731Z,52.18
2022-10-05T10:33:14.171Z,51.91
2022-10-05T10:35:48.439Z,50.45
2022-10-05T10:38:40.308Z,47.97
2022-10-05T10:41:22.426Z,46.25
2022-10-05T10:44:11.210Z,48.94
2022-10-05T10:46:44.910Z,52.06
2022-10-05T10:49:33.712Z,51.00
2022-10-05T10:52:48.123Z,50.53
2022-10-05T10:55:38.137Z,49.10
2022-10-05T10:58:52.753Z,46.46
2022-10-05T11:01:52.687Z,44.76
2022-10-05T11:04:19.566Z,46.36
2022-10-05T11:07:23.651Z,45.37
2022-10-05T11:10:22.908Z,45.09
2022-10-05T11:12:52.460Z,44.18
2022-10-05T11:15:47.434Z,44.19
2022-10-05T11:18:45.928Z,45.06
2022-10-05T11:21:36.928Z,44.33
2022-10-05T11:24:28.209Z,44.12
2022-10-05T11:29:59.401Z,44.97
2022-10-05T11:32:51.151Z,43.71
2022-10-05T11:35:39.435Z,42.80
2022-10-05T11:38:57.956Z,42.52
2022-10-05T11:41:38.900Z,41.04
2022-10-05T11:44:33.410Z,42.40
2022-10-05T11:47:26.422Z,41.84
2022-10-05T11:50:18.077Z,42.83
2022-10-05T11:52:59.371Z,44.14
2022-10-05T11:55:47.995Z,45.09
2022-10-05T11:58:14.725Z,45.66
2022-10-05T12:00:57.985Z,44.57
2022-10-05T12:03:37.148Z,45.39
2022-10-05T12:06:22.264Z,46.34
2022-10-05T12:09:26.882Z,48.30
2022-10-05T12:12:07.824Z,49.02
2022-10-05T12:15:03.013Z,47.72
2022-10-05T12:17:56.428Z,48.07
2022-10-05T12:20:26.605Z,47.86
2022-10-05T12:23:07.176Z,47.86
2022-10-05T12:25:45.719Z,48.94
2022-10-05T12:28:18.328Z,49.07
2022-10-05T12:31:12.604Z,47.93
2022-10-05T12:34:01.871Z,48.38
2022-10-05T12:36:59.708Z,48.91
2022-10-05T12:39:43.274Z,48.07
2022-10-05T12:42:21.223Z,48.39
2022-10-05T12:45:01.283Z,48.96
2022-10-05T12:48:00.103Z,48.49
2022-10-05T12:50:36.854Z,48.79
2022-10-05T12:53:35.169Z,49.57
2022-10-05T12:56:08.198Z,49.45
2022-10-05T12:58:35.162Z,49.69
2022-10-05T13:01:28.585Z,48.53
2022-10-05T13:04:28.769Z,48.29
2022-10-05T13:07:29.854Z,47.62
2022-10-05T13:10:42.575Z,47.57
2022-10-05T13:13:39.975Z,46.81
2022-10-05T13:16:22.382Z,47.50
2022-10-05T13:19:16.041Z,47.25
2022-10-05T13:22:07.463Z,49.67
2022-10-05T13:24:40.133Z,50.18
2022-10-05T13:27:17.869Z,51.11
2022-10-05T13:30:05.115Z,52.66
2022-10-05T13:32:40.225Z,54.20
2022-10-05T13:35:37.709Z,53.80
2022-10-05T13:38:51.292Z,53.19
2022-10-05T13:41:31.843Z,53.28
2022-10-05T13:44:17.048Z,54.37
2022-10-05T13:46:52.959Z,54.18
2022-10-05T13:49:38.254Z,55.01
2022-10-05T13:52:08.774Z,54.79
2022-10-05T13:54:51.080Z,55.50
2022-10-05T13:57:27.931Z,55.21
2022-10-05T14:00:06.165Z,55.38
2022-10-05T14:02:40.330Z,55.02
2022-10-05T14:05:27.523Z,55.23
2022-10-05T14:08:18.974Z,55.64
2022-10-05T14:10:47.538Z,55.47
2022-10-05T14:13:34.663Z,55.88
2022-10-05T14:16:13.635Z,55.65
2022-10-05T14:19:05.092Z,55.39
2022-10-05T14:21:42.879Z,55.63
2022-10-05T14:24:46.649Z,55.68
2022-10-05T14:27:19.089Z,56.19
2022-10-05T14:29:54.454Z,56.30
2022-10-05T14:32:27.157Z,56.17
2022-10-05T14:35:05.167Z,56.27
2022-10-05T14:37:43.383Z,56.44
2022-10-05T14:40:37.472Z,56.59
2022-10-05T14:43:18.609Z,56.69
2022-10-05T14:45:57.809Z,57.14
2022-10-05T14:48:29.761Z,57.80
2022-10-05T14:50:59.427Z,57.76
2022-10-05T14:53:41.640Z,57.68
2022-10-05T14:56:17.053Z,58.54
2022-10-05T14:58:47.156Z,58.39
2022-10-05T15:01:20.444Z,58.43
2022-10-05T15:04:07.032Z,58.85
2022-10-05T15:06:58.443Z,59.09
2022-10-05T15:10:04.224Z,59.29
2022-10-05T15:12:35.435Z,60.10
2022-10-05T15:15:14.935Z,60.05
2022-10-05T15:17:52.623Z,60.43
2022-10-05T15:20:36.040Z,60.91
2022-10-05T15:23:03.308Z,61.02
2022-10-05T15:25:42.207Z,61.07
2022-10-05T15:28:21.515Z,61.59
2022-10-05T15:31:04.007Z,61.79
2022-10-05T15:33:39.783Z,62.83
2022-10-05T15:36:24.650Z,63.15
2022-10-05T15:39:12.367Z,63.23
2022-10-05T15:42:02.500Z,63.35
2022-10-05T15:44:52.197Z,64.66
2022-10-05T15:47:28.062Z,65.82
2022-10-05T15:50:10.310Z,65.46
2022-10-05T15:52:44.046Z,66.74
2022-10-05T15:55:26.947Z,66.78
2022-10-05T15:58:31.744Z,67.29
2022-10-05T16:01:08.076Z,67.29
2022-10-05T16:03:59.329Z,67.65
2022-10-05T16:06:50.944Z,68.49
2022-10-05T16:09:49.809Z,68.44
2022-10-05T16:12:28.947Z,69.18
2022-10-05T16:15:16.284Z,69.12
2022-10-05T16:18:26.935Z,70.12
2022-10-05T16:21:05.454Z,70.15
2022-10-05T16:23:44.601Z,70.02
2022-10-05T16:26:38.670Z,69.91
2022-10-05T16:29:11.843Z,70.19
2022-10-05T16:32:25.029Z,70.74
2022-10-05T16:35:25.382Z,71.95
2022-10-05T16:38:07.612Z,72.57
2022-10-05T16:40:50.744Z,72.94
2022-10-05T16:43:49.353Z,73.88
2022-10-05T16:46:37.184Z,74.39
2022-10-05T16:49:13.110Z,75.00
2022-10-05T16:51:55.002Z,75.53
2022-10-05T16:54:32.006Z,75.74
2022-10-05T16:57:25.827Z,76.39
2022-10-05T17:00:08.881Z,76.83
2022-10-05T17:02:48.301Z,76.21
2022-10-05T17:05:21.127Z,76.33
2022-10-05T17:08:26.538Z,77.12
2022-10-05T17:11:05.669Z,77.58
2022-10-05T17:13:41.978Z,78.01
2022-10-05T17:16:33.723Z,78.41
2022-10-05T17:19:15.863Z,78.69
2022-10-05T17:21:50.149Z,79.08
2022-10-05T17:24:47.721Z,79.41
2022-10-05T17:27:17.759Z,79.81
2022-10-05T17:29:52.344Z,79.90
2022-10-05T17:32:19.108Z,80.42
2022-10-05T17:35:01.147Z,80.67
2022-10-05T17:37:27.835Z,81.65
2022-10-05T17:39:57.266Z,82.04
2022-10-05T17:42:26.828Z,82.17
2022-10-05T17:45:14.783Z,82.56
2022-10-05T17:48:09.715Z,83.04
2022-10-05T17:51:06.631Z,83.82
2022-10-05T17:54:01.404Z,84.00
2022-10-05T17:56:33.888Z,84.12
2022-10-05T17:59:04.568Z,84.89
2022-10-05T18:01:35.697Z,85.48
2022-10-05T18:04:11.948Z,86.04
2022-10-05T18:06:44.833Z,86.24
2022-10-05T18:09:20.572Z,86.28
2022-10-05T18:12:09.685Z,86.54
2022-10-05T18:15:02.353Z,86.86
2022-10-05T18:17:40.025Z,87.30
2022-10-05T18:20:18.496Z,87.63
2022-10-05T18:22:51.199Z,87.90
2022-10-05T18:25:33.351Z,88.38
2022-10-05T18:28:19.066Z,88.15
2022-10-05T18:31:11.925Z,88.40
2022-10-05T18:33:44.812Z,88.82
2022-10-05T18:36:21.384Z,88.62
2022-10-05T18:38:56.936Z,89.20
2022-10-05T18:41:54.714Z,89.06
2022-10-05T18:44:31.929Z,89.54
2022-10-05T18:47:17.190Z,89.17
2022-10-05T18:49:53.035Z,89.51
2022-10-05T18:52:32.510Z,89.40
2022-10-05T18:55:26.561Z,89.53
2022-10-05T18:58:30.784Z,89.54
2022-10-05T19:01:20.660Z,89.55
2022-10-05T19:03:49.247Z,89.43
2022-10-05T19:06:33.501Z,89.70
2022-10-05T19:09:19.941Z,89.77
2022-10-05T19:11:52.763Z,89.80
2022-10-05T19:14:29.407Z,89.80
2022-10-05T19:17:15.020Z,90.06
2022-10-05T19:19:43.868Z,90.24
2022-10-05T19:22:25.930Z,90.00
2022-10-05T19:24:53.148Z,90.20
2022-10-05T19:27:45.542Z,90.14
2022-10-05T19:30:18.335Z,90.25
2022-10-05T19:33:06.882Z,90.51
2022-10-05T19:36:13.120Z,90.67
2022-10-05T19:39:04.352Z,90.65
2022-10-05T19:41:44.590Z,90.58
2022-10-05T19:44:29.660Z,90.36
2022-10-05T19:47:02.714Z,90.42
2022-10-05T19:49:35.517Z,90.46
2022-10-05T19:52:03.310Z,90.55
2022-10-05T19:54:30.224Z,90.67
2022-10-05T19:57:00.717Z,90.79
2022-10-05T19:59:31.476Z,90.93
2022-10-05T20:01:59.240Z,91.07
2022-10-05T20:04:36.323Z,91.18
2022-10-05T20:07:04.163Z,91.34
2022-10-05T20:09:53.531Z,91.21
2022-10-05T20:12:23.135Z,91.13
2022-10-05T20:15:26.887Z,91.22
2022-10-05T20:18:12.141Z,91.39
2022-10-05T20:20:45.738Z,91.77
2022-10-05T20:23:22.379Z,91.67
2022-10-05T20:26:09.285Z,91.89
2022-10-05T20:28:36.454Z,91.81
2022-10-05T20:31:05.655Z,91.85
2022-10-05T20:33:34.481Z,92.16
2022-10-05T20:36:03.744Z,92.35
2022-10-05T20:38:31.805Z,92.14
2022-10-05T20:40:58.820Z,92.15
2022-10-05T20:43:31.829Z,92.48
2022-10-05T20:45:58.639Z,92.37
2022-10-05T20:48:26.314Z,92.82
2022-10-05T20:50:54.206Z,93.01
2022-10-05T20:53:21.022Z,93.13
2022-10-05T20:55:47.876Z,93.01
2022-10-05T20:58:16.365Z,93.41
2022-10-05T21:01:01.731Z,93.24
2022-10-05T21:03:28.722Z,93.29
2022-10-05T21:05:55.547Z,93.33
2022-10-05T21:08:22.387Z,93.41
2022-10-05T21:10:50.458Z,93.41
2022-10-05T21:13:18.473Z,93.50
2022-10-05T21:15:45.280Z,93.60
2022-10-05T21:18:12.147Z,94.11
2022-10-05T21:20:38.975Z,94.44
2022-10-05T21:23:05.746Z,94.63
2022-10-05T21:25:33.874Z,94.71
2022-10-05T21:28:00.709Z,94.79
2022-10-05T21:30:29.539Z,94.93
2022-10-05T21:32:56.523Z,94.82
2022-10-05T21:35:23.373Z,94.64
2022-10-05T21:37:50.237Z,94.63
2022-10-05T21:40:17.210Z,94.83
2022-10-05T21:42:44.045Z,94.79
2022-10-05T21:45:11.099Z,94.64
2022-10-05T21:47:38.041Z,94.54
2022-10-05T21:50:08.025Z,94.70
2022-10-05T21:52:35.824Z,94.70
2022-10-05T21:55:05.906Z,94.67
2022-10-05T21:57:34.718Z,94.70
2022-10-05T22:00:02.563Z,94.73
2022-10-05T22:02:29.660Z,94.72
2022-10-05T22:04:58.179Z,94.77
2022-10-05T22:07:25.019Z,94.70
2022-10-05T22:09:53.060Z,94.83
2022-10-05T22:12:20.121Z,94.83
2022-10-05T22:14:47.552Z,95.02
2022-10-05T22:17:21.365Z,95.24
2022-10-05T22:19:49.197Z,95.30
2022-10-05T22:22:16.024Z,95.30
2022-10-05T22:24:43.007Z,95.58
2022-10-05T22:27:09.825Z,95.61
2022-10-05T22:29:37.741Z,95.47
2022-10-05T22:32:04.811Z,95.46
2022-10-05T22:34:31.703Z,95.62
2022-10-05T22:36:59.472Z,95.18
2022-10-05T22:39:26.587Z,95.25
2022-10-05T22:41:53.436Z,95.16
2022-10-05T22:44:20.824Z,94.88
2022-10-05T22:46:47.718Z,94.66
2022-10-05T22:49:15.015Z,94.84
2022-10-05T22:51:42.633Z,94.69
2022-10-05T22:54:09.447Z,94.74
2022-10-05T22:56:36.319Z,94.66
2022-10-05T22:59:03.350Z,94.74
2022-10-05T23:01:30.385Z,94.53
2022-10-05T23:03:57.416Z,94.34
2022-10-05T23:06:26.672Z,94.41
2022-10-05T23:08:54.580Z,94.73
2022-10-05T23:11:26.939Z,94.72
2022-10-05T23:13:58.077Z,94.87
2022-10-05T23:16:27.468Z,94.94
2022-10-05T23:18:55.079Z,94.82
2022-10-05T23:21:24.200Z,94.89
2022-10-05T23:23:51.412Z,95.01
2022-10-05T23:26:21.878Z,95.51
2022-10-05T23:28:49.280Z,95.56
2022-10-05T23:31:19.934Z,95.33
2022-10-05T23:33:47.320Z,95.46
2022-10-05T23:36:16.786Z,95.31
2022-10-05T23:38:44.364Z,95.46
2022-10-05T23:41:11.738Z,95.51
2022-10-05T23:43:38.927Z,95.61
2022-10-05T23:46:07.268Z,95.64
2022-10-05T23:48:38.013Z,95.88
2022-10-05T23:51:07.020Z,95.95
2022-10-05T23:53:36.292Z,95.86
2022-10-05T23:56:03.668Z,95.89
2022-10-05T23:58:30.991Z,96.04
